Time;durP1;ratioP1;P1;durP2;ratioP2;P2;SDS_P1;SDS_P2;PMS_P1;PMS_P2;Temp;Humidity;BMP_temperature;BMP_pressure;BME280_temperature;BME280_humidity;BME280_pressure;Samples;Min_cycle;Max_cycle;Signal;HPM_P1;HPM_P2
2023/05/20 00:01:52;;;;;;;22.10;10.30;;;;;;;13.78;64.89;101565.88;5014415;28;20054;-63
2023/05/20 00:04:19;;;;;;;23.23;10.43;;;;;;;13.99;64.50;101551.22;5013612;28;20508;-64
2023/05/20 00:06:47;;;;;;;19.23;10.50;;;;;;;13.94;64.44;101545.00;5013929;28;20571;-63
2023/05/20 00:09:16;;;;;;;23.25;10.70;;;;;;;14.21;63.39;101553.16;5012974;28;20049;-64
2023/05/20 00:11:45;;;;;;;19.55;10.02;;;;;;;13.89;64.26;101548.72;5012431;28;20570;-64
2023/05/20 00:14:12;;;;;;;20.38;10.18;;;;;;;14.00;64.54;101547.31;5013651;28;20041;-64
2023/05/20 00:16:40;;;;;;;22.00;10.07;;;;;;;14.13;64.00;101551.97;5014270;28;20065;-64
2023/05/20 00:19:08;;;;;;;21.20;10.77;;;;;;;14.02;64.18;101549.75;5013618;28;20057;-65
2023/05/20 00:21:35;;;;;;;22.38;10.93;;;;;;;13.95;64.16;101544.66;5014299;28;20049;-65
2023/05/20 00:24:03;;;;;;;28.63;9.85;;;;;;;13.94;64.25;101545.00;5014294;28;20049;-64
2023/05/20 00:26:30;;;;;;;21.67;10.20;;;;;;;13.83;64.41;101561.03;5013383;28;20050;-64
2023/05/20 00:28:58;;;;;;;22.52;9.55;;;;;;;13.87;64.44;101547.38;4995606;28;20050;-64
2023/05/20 00:31:25;;;;;;;27.98;10.25;;;;;;;14.27;63.71;101541.66;5028286;28;20630;-64
2023/05/20 00:33:52;;;;;;;25.15;9.60;;;;;;;14.03;63.79;101545.88;5013095;28;20061;-64
2023/05/20 00:36:20;;;;;;;19.23;9.27;;;;;;;14.01;63.84;101543.41;5013941;28;20401;-64
2023/05/20 00:38:47;;;;;;;22.50;9.45;;;;;;;14.06;63.43;101543.28;5013777;28;20038;-65
2023/05/20 00:41:14;;;;;;;20.92;9.57;;;;;;;14.10;63.41;101546.25;4981411;28;20725;-63
2023/05/20 00:43:41;;;;;;;18.58;9.65;;;;;;;14.12;62.73;101543.97;4994753;28;20077;-63
2023/05/20 00:46:09;;;;;;;18.63;9.48;;;;;;;13.88;64.29;101537.97;5013356;28;20045;-63
2023/05/20 00:48:40;;;;;;;22.63;9.35;;;;;;;13.93;63.48;101530.31;4995256;28;20053;-64
2023/05/20 00:51:09;;;;;;;21.08;9.15;;;;;;;14.20;63.59;101518.25;5010874;28;20066;-64
2023/05/20 00:53:37;;;;;;;23.63;9.48;;;;;;;14.09;63.26;101519.66;5021884;28;20417;-64
2023/05/20 00:56:05;;;;;;;23.67;8.77;;;;;;;14.05;63.03;101507.59;4994763;28;20058;-65
2023/05/20 00:58:35;;;;;;;17.42;8.70;;;;;;;13.64;64.37;101520.81;4995620;28;20046;-63
2023/05/20 01:01:04;;;;;;;22.20;9.30;;;;;;;13.71;63.75;101518.44;5027841;28;20084;-65
2023/05/20 01:03:32;;;;;;;19.50;9.05;;;;;;;13.76;63.98;101521.06;5012948;28;20046;-65
2023/05/20 01:06:01;;;;;;;16.85;7.93;;;;;;;14.04;63.06;101517.03;5028248;28;20068;-65
2023/05/20 01:08:29;;;;;;;24.60;9.38;;;;;;;13.85;63.81;101508.09;5012436;28;20073;-65
2023/05/20 01:11:03;;;;;;;20.33;8.43;;;;;;;13.62;63.34;101499.00;4993684;28;20046;-64
2023/05/20 01:13:42;;;;;;;18.33;8.60;;;;;;;13.97;63.20;101509.16;5013601;28;20057;-64
2023/05/20 01:16:10;;;;;;;25.52;8.50;;;;;;;13.73;63.50;101521.72;4995269;28;20057;-65
2023/05/20 01:18:39;;;;;;;20.15;8.52;;;;;;;13.63;63.65;101511.72;4991474;28;20054;-64
2023/05/20 01:21:10;;;;;;;18.33;8.60;;;;;;;13.69;63.30;101506.84;4960687;28;20046;-64
2023/05/20 01:23:39;;;;;;;19.15;7.82;;;;;;;13.60;63.93;101517.06;4976547;28;20051;-64
2023/05/20 01:26:08;;;;;;;;;;;;;;;13.48;64.34;101507.34;5001581;28;20246;-64
2023/05/20 01:28:37;;;;;;;21.60;9.00;;;;;;;13.52;64.13;101513.09;5011842;28;19922;-65
2023/05/20 01:31:11;;;;;;;26.40;9.48;;;;;;;13.54;64.37;101503.34;5028222;28;20042;-65
2023/05/20 01:33:39;;;;;;;23.08;9.18;;;;;;;13.69;64.11;101490.25;5027391;28;20056;-65
2023/05/20 01:36:08;;;;;;;23.80;9.02;;;;;;;13.71;63.66;101502.66;4995333;28;20053;-64
2023/05/20 01:38:38;;;;;;;20.63;9.43;;;;;;;13.46;64.45;101489.41;4988053;28;20611;-64
2023/05/20 01:41:06;;;;;;;16.65;8.88;;;;;;;13.27;65.33;101497.06;4990621;28;20062;-64
2023/05/20 01:43:34;;;;;;;24.38;9.20;;;;;;;13.40;65.05;101496.22;5005714;28;20050;-64
2023/05/20 01:46:05;;;;;;;20.42;9.00;;;;;;;13.30;65.60;101486.19;5012976;28;20064;-64
2023/05/20 01:48:33;;;;;;;20.02;9.25;;;;;;;13.40;65.27;101488.75;4994780;28;20042;-66
2023/05/20 01:51:00;;;;;;;20.17;8.75;;;;;;;13.44;65.32;101486.19;4995373;28;20049;-65
2023/05/20 01:53:28;;;;;;;21.38;9.10;;;;;;;13.38;65.29;101487.41;5005547;28;20057;-65
2023/05/20 01:55:55;;;;;;;22.55;9.77;;;;;;;13.28;65.82;101488.50;5012670;28;20045;-65
2023/05/20 01:58:22;;;;;;;20.95;9.15;;;;;;;13.13;66.25;101486.06;4980586;28;20046;-65
2023/05/20 02:00:50;;;;;;;22.73;9.65;;;;;;;13.03;66.89;101480.78;4999275;28;20080;-64
2023/05/20 02:03:18;;;;;;;23.50;9.20;;;;;;;13.23;66.23;101485.81;4998193;28;20504;-65
2023/05/20 02:05:45;;;;;;;18.08;8.80;;;;;;;13.39;65.90;101478.78;5014953;28;20050;-65
2023/05/20 02:08:12;;;;;;;25.13;10.18;;;;;;;13.43;65.68;101465.16;5014366;28;20398;-64
2023/05/20 02:10:40;;;;;;;18.52;8.80;;;;;;;13.37;65.96;101478.28;5016488;28;20058;-64
2023/05/20 02:13:08;;;;;;;24.00;9.35;;;;;;;13.08;67.09;101475.13;5013965;28;20417;-64
2023/05/20 02:15:40;;;;;;;23.60;11.20;;;;;;;13.23;66.83;101476.72;5011310;28;20065;-64
2023/05/20 02:18:07;;;;;;;24.58;9.27;;;;;;;13.46;66.23;101479.19;4997064;28;20051;-64
2023/05/20 02:20:35;;;;;;;21.25;8.93;;;;;;;13.27;66.45;101472.19;5004132;28;20046;-65
2023/05/20 02:23:06;;;;;;;22.90;10.68;;;;;;;12.90;67.86;101478.00;5015886;28;20050;-65
2023/05/20 02:25:33;;;;;;;19.42;10.35;;;;;;;12.95;67.99;101470.41;5015981;28;20049;-64
2023/05/20 02:28:04;;;;;;;22.98;11.07;;;;;;;13.09;67.85;101473.19;4998976;28;20061;-64
2023/05/20 02:30:31;;;;;;;;;;;;;;;12.79;68.63;101476.59;5014261;28;20513;-65
2023/05/20 02:32:59;;;;;;;19.42;9.50;;;;;;;12.96;68.60;101477.56;5016442;28;19929;-64
2023/05/20 02:35:26;;;;;;;23.90;11.23;;;;;;;12.91;68.36;101474.94;5016569;28;20050;-64
2023/05/20 02:37:53;;;;;;;20.80;10.68;;;;;;;13.10;67.89;101478.41;5012265;28;20058;-64
2023/05/20 02:40:21;;;;;;;21.10;10.48;;;;;;;12.86;68.77;101475.03;4979867;28;20067;-65
2023/05/20 02:42:49;;;;;;;24.83;10.43;;;;;;;12.83;69.14;101472.88;4999571;28;20070;-64
2023/05/20 02:45:16;;;;;;;27.08;11.30;;;;;;;13.06;68.36;101471.84;5007112;28;20062;-65
2023/05/20 02:47:45;;;;;;;27.08;11.75;;;;;;;13.01;68.67;101462.81;5014444;28;20053;-65
2023/05/20 02:50:12;;;;;;;25.30;10.98;;;;;;;12.63;69.90;101465.03;5014750;28;20064;-65
2023/05/20 02:52:41;;;;;;;23.45;10.80;;;;;;;12.67;70.43;101468.84;4997309;28;20052;-64
2023/05/20 02:55:08;;;;;;;25.42;11.10;;;;;;;12.88;69.46;101467.25;5014376;28;20582;-64
2023/05/20 02:57:39;;;;;;;25.13;11.60;;;;;;;12.73;69.74;101459.28;4998179;28;20049;-64
2023/05/20 03:00:12;;;;;;;23.40;11.95;;;;;;;12.61;70.23;101463.69;5013481;28;20053;-65
2023/05/20 03:02:39;;;;;;;25.75;12.13;;;;;;;12.62;70.32;101457.88;5030102;28;20053;-65
2023/05/20 03:05:08;;;;;;;22.25;11.55;;;;;;;12.73;69.99;101456.53;4997450;28;20053;-64
2023/05/20 03:07:35;;;;;;;28.50;12.30;;;;;;;12.85;69.99;101464.31;4999058;28;20091;-64
2023/05/20 03:10:06;;;;;;;29.90;12.98;;;;;;;12.75;69.71;101454.28;4995192;28;20389;-64
2023/05/20 03:12:34;;;;;;;22.52;11.65;;;;;;;12.78;69.86;101456.41;5011196;28;20054;-64
2023/05/20 03:15:02;;;;;;;22.45;11.77;;;;;;;12.54;70.79;101455.81;5014735;28;20076;-65
2023/05/20 03:17:30;;;;;;;25.13;11.40;;;;;;;12.61;70.87;101460.94;5013776;28;20053;-64
2023/05/20 03:19:57;;;;;;;24.23;11.65;;;;;;;12.62;71.09;101460.66;5014955;28;20069;-64
2023/05/20 03:22:24;;;;;;;28.17;12.85;;;;;;;12.48;71.20;101466.16;4996534;28;20041;-65
2023/05/20 03:24:52;;;;;;;24.55;11.50;;;;;;;12.35;71.92;101458.72;5013686;28;20508;-64
2023/05/20 03:27:20;;;;;;;24.50;12.05;;;;;;;12.44;71.28;101454.13;4981350;28;20133;-65
2023/05/20 03:29:47;;;;;;;22.17;12.20;;;;;;;12.65;71.02;101453.66;5014857;28;20053;-65
2023/05/20 03:32:16;;;;;;;23.15;11.82;;;;;;;12.88;70.13;101445.13;5014008;28;20042;-64
2023/05/20 03:34:43;;;;;;;28.65;11.70;;;;;;;12.73;70.15;101451.00;5013284;28;20056;-65
2023/05/20 03:37:10;;;;;;;26.95;12.65;;;;;;;12.92;69.89;101448.91;4996834;28;20472;-65
2023/05/20 03:39:38;;;;;;;32.85;13.18;;;;;;;12.64;70.19;101447.31;5015165;28;20397;-65
2023/05/20 03:42:06;;;;;;;25.35;13.00;;;;;;;12.78;69.69;101436.25;4997430;28;20147;-64
2023/05/20 03:44:34;;;;;;;24.20;12.50;;;;;;;12.78;70.13;101434.28;5010190;28;20297;-64
2023/05/20 03:47:02;;;;;;;32.75;11.93;;;;;;;12.94;69.47;101443.88;4997037;28;20053;-65
2023/05/20 03:49:30;;;;;;;24.25;12.57;;;;;;;12.66;70.12;101435.97;5029137;28;20050;-65
2023/05/20 03:51:57;;;;;;;24.42;12.50;;;;;;;12.64;70.68;101433.50;5010080;28;20058;-65
2023/05/20 03:54:25;;;;;;;22.38;12.52;;;;;;;12.77;70.35;101435.44;4996756;28;20057;-64
2023/05/20 03:56:53;;;;;;;26.88;12.40;;;;;;;12.80;70.14;101434.81;5029740;28;20060;-64
2023/05/20 03:59:21;;;;;;;27.75;13.18;;;;;;;12.78;70.11;101434.28;5007144;28;20042;-64
2023/05/20 04:01:48;;;;;;;27.55;13.75;;;;;;;12.47;71.64;101433.31;5014832;28;20073;-66
2023/05/20 04:04:15;;;;;;;26.27;14.10;;;;;;;12.55;71.66;101437.31;5013836;28;20053;-64
2023/05/20 04:06:43;;;;;;;30.05;14.07;;;;;;;12.61;71.13;101431.34;5014005;28;20042;-65
2023/05/20 04:09:11;;;;;;;27.58;12.85;;;;;;;12.58;71.48;101439.44;4996861;28;20062;-65
2023/05/20 04:11:38;;;;;;;26.27;13.63;;;;;;;12.89;70.89;101426.59;4997141;28;20071;-65
2023/05/20 04:14:06;;;;;;;24.40;12.73;;;;;;;12.93;70.05;101427.59;4996310;28;20508;-64
2023/05/20 04:16:33;;;;;;;24.33;12.40;;;;;;;13.01;69.62;101435.97;5014680;28;20056;-64
2023/05/20 04:19:01;;;;;;;23.17;12.80;;;;;;;13.12;68.89;101428.28;4996129;28;20050;-64
2023/05/20 04:21:30;;;;;;;25.63;13.00;;;;;;;12.90;69.88;101436.53;5010046;28;20046;-64
2023/05/20 04:23:57;;;;;;;26.05;12.52;;;;;;;12.72;70.26;101430.03;4996114;28;20057;-66
2023/05/20 04:26:25;;;;;;;23.02;13.15;;;;;;;12.86;69.77;101433.56;5014350;28;20497;-65
2023/05/20 04:28:52;;;;;;;21.92;12.82;;;;;;;12.81;69.96;101427.34;5014126;28;20045;-65
2023/05/20 04:31:25;;;;;;;27.70;13.70;;;;;;;12.84;69.81;101435.81;4966680;28;20458;-65
2023/05/20 04:33:53;;;;;;;23.55;12.90;;;;;;;13.00;69.71;101428.00;4995018;28;20050;-65
2023/05/20 04:36:21;;;;;;;22.92;12.50;;;;;;;13.11;69.21;101424.69;4995695;28;20042;-65
2023/05/20 04:38:49;;;;;;;23.25;13.10;;;;;;;13.30;68.38;101422.56;5011180;28;20050;-65
2023/05/20 04:41:17;;;;;;;26.27;13.55;;;;;;;12.95;69.23;101428.13;4995430;28;20050;-65
2023/05/20 04:43:44;;;;;;;27.30;13.63;;;;;;;12.77;70.03;101426.31;4994694;28;20056;-65
2023/05/20 04:46:12;;;;;;;23.33;14.05;;;;;;;12.77;70.24;101437.38;4993697;28;20061;-65
2023/05/20 04:48:42;;;;;;;26.47;14.23;;;;;;;12.54;71.22;101428.19;4994449;28;20061;-65
2023/05/20 04:51:12;;;;;;;27.33;13.82;;;;;;;12.66;70.94;101425.72;4980047;28;20045;-66
2023/05/20 04:53:39;;;;;;;29.58;14.23;;;;;;;12.40;71.86;101424.63;5000910;28;20046;-65
2023/05/20 04:56:07;;;;;;;24.80;14.07;;;;;;;12.36;72.43;101427.19;4997705;28;20419;-65
2023/05/20 04:58:34;;;;;;;25.98;13.93;;;;;;;12.35;72.65;101422.81;5028580;28;20046;-65
2023/05/20 05:01:02;;;;;;;31.60;14.63;;;;;;;12.43;72.42;101430.34;5012651;28;20053;-64
2023/05/20 05:03:29;;;;;;;29.27;14.40;;;;;;;12.24;73.14;101421.38;4995979;28;20053;-65
2023/05/20 05:05:58;;;;;;;31.20;14.63;;;;;;;12.57;72.33;101430.31;5009729;28;20057;-65
2023/05/20 05:08:25;;;;;;;28.20;14.77;;;;;;;12.59;72.21;101430.03;4995727;28;20069;-65
2023/05/20 05:10:53;;;;;;;25.95;13.93;;;;;;;12.61;71.71;101441.59;4995156;28;20053;-65
2023/05/20 05:13:20;;;;;;;29.58;13.82;;;;;;;12.40;72.32;101427.38;4995660;28;20045;-65
2023/05/20 05:15:48;;;;;;;27.08;13.88;;;;;;;12.30;72.83;101427.59;4994911;28;20045;-65
2023/05/20 05:18:17;;;;;;;26.52;14.45;;;;;;;12.50;72.32;101423.59;4995737;28;20087;-65
2023/05/20 05:20:45;;;;;;;27.83;14.20;;;;;;;12.36;72.37;101412.56;5027885;28;20050;-66
2023/05/20 05:23:13;;;;;;;26.27;13.60;;;;;;;12.62;71.84;101416.44;4995629;28;20049;-65
2023/05/20 05:25:40;;;;;;;28.90;13.27;;;;;;;12.61;71.85;101425.84;4995826;28;20049;-64
2023/05/20 05:28:08;;;;;;;26.95;14.32;;;;;;;12.57;71.89;101412.94;4995933;28;20080;-65
2023/05/20 05:30:36;;;;;;;25.38;13.70;;;;;;;12.65;71.65;101415.81;4995114;28;20057;-66
2023/05/20 05:33:03;;;;;;;27.10;14.40;;;;;;;12.93;70.70;101411.84;4998139;28;20054;-66
2023/05/20 05:35:31;;;;;;;22.80;13.93;;;;;;;13.08;69.99;101414.28;4982634;28;20056;-65
2023/05/20 05:37:59;;;;;;;26.60;13.85;;;;;;;12.87;70.46;101415.84;5012215;28;20053;-64
2023/05/20 05:40:26;;;;;;;22.25;14.13;;;;;;;12.60;71.41;101421.44;5015899;28;20053;-64
2023/05/20 05:42:54;;;;;;;26.10;14.45;;;;;;;12.60;71.28;101426.16;5017242;28;20061;-65
2023/05/20 05:45:21;;;;;;;27.20;14.20;;;;;;;12.76;71.14;101421.94;5023776;28;20054;-66
2023/05/20 05:47:48;;;;;;;28.38;14.23;;;;;;;12.80;70.74;101418.22;5015400;28;20053;-64
2023/05/20 05:50:16;;;;;;;33.15;14.38;;;;;;;12.80;70.83;101415.44;5014500;28;20054;-65
2023/05/20 05:52:43;;;;;;;27.75;14.32;;;;;;;12.81;70.77;101417.09;4995826;28;20046;-65
2023/05/20 05:55:11;;;;;;;24.83;14.65;;;;;;;12.80;71.10;101418.22;4997526;28;20050;-64
2023/05/20 05:57:39;;;;;;;29.10;13.32;;;;;;;13.06;70.06;101416.53;4996072;28;20494;-64
2023/05/20 06:00:07;;;;;;;24.95;13.68;;;;;;;12.91;69.99;101410.50;5011649;28;20049;-65
2023/05/20 06:02:44;;;;;;;24.05;14.07;;;;;;;12.75;71.16;101404.50;5031091;28;20060;-65
2023/05/20 06:05:19;;;;;;;25.45;14.18;;;;;;;12.98;70.17;101408.13;5031329;28;20056;-65
2023/05/20 06:07:46;;;;;;;23.50;13.02;;;;;;;13.00;70.04;101400.34;4999156;28;20066;-66
2023/05/20 06:10:14;;;;;;;25.15;13.20;;;;;;;12.87;70.41;101403.94;5015390;28;20057;-65
2023/05/20 06:12:41;;;;;;;32.53;13.93;;;;;;;12.86;70.21;101411.44;5031532;28;20058;-65
2023/05/20 06:15:09;;;;;;;32.13;14.13;;;;;;;12.94;69.88;101405.16;5014631;28;20053;-65
2023/05/20 06:17:37;;;;;;;22.70;13.02;;;;;;;13.08;69.12;101399.59;5032284;28;20137;-65
2023/05/20 06:20:05;;;;;;;30.05;14.30;;;;;;;13.38;68.93;101398.88;5007480;28;20055;-66
2023/05/20 06:22:33;;;;;;;20.15;12.98;;;;;;;13.04;69.19;101398.63;4995446;28;20061;-65
2023/05/20 06:25:01;;;;;;;26.98;13.52;;;;;;;13.36;69.03;101403.88;5011891;28;20058;-65
2023/05/20 06:27:30;;;;;;;27.42;13.45;;;;;;;13.58;68.65;101396.38;4995751;28;20058;-65
2023/05/20 06:29:57;;;;;;;23.13;13.52;;;;;;;13.79;67.80;101396.66;4963253;28;20061;-65
2023/05/20 06:32:24;;;;;;;26.00;13.25;;;;;;;13.64;67.59;101393.47;5000784;28;20050;-66
2023/05/20 06:34:52;;;;;;;24.65;13.93;;;;;;;13.73;67.71;101397.94;5007021;28;20055;-65
2023/05/20 06:37:23;;;;;;;30.42;13.93;;;;;;;13.80;66.96;101389.16;5009680;28;20489;-67
2023/05/20 06:39:52;;;;;;;29.90;14.02;;;;;;;13.58;68.31;101384.50;4998494;28;20053;-66
2023/05/20 06:42:20;;;;;;;24.02;13.20;;;;;;;13.14;70.14;101390.91;4998372;28;20054;-66
2023/05/20 06:45:01;;;;;;;24.45;14.32;;;;;;;13.23;69.98;101385.44;4998487;28;20053;-67
2023/05/20 06:47:48;;;;;;;21.40;12.77;;;;;;;13.39;69.37;101379.19;5015254;28;20054;-66
2023/05/20 06:50:16;;;;;;;20.55;13.27;;;;;;;13.65;67.75;101382.09;5015328;28;20060;-67
2023/05/20 06:52:44;;;;;;;21.13;12.65;;;;;;;13.53;68.51;101382.69;4978317;28;20050;-66
2023/05/20 06:55:12;;;;;;;26.13;13.40;;;;;;;13.33;68.99;101365.78;5011316;28;20054;-66
2023/05/20 06:57:39;;;;;;;26.48;13.10;;;;;;;13.30;68.97;101372.75;5011200;28;20057;-66
2023/05/20 07:00:08;;;;;;;26.80;13.52;;;;;;;13.51;68.23;101379.41;5013500;28;20046;-65
2023/05/20 07:02:41;;;;;;;34.60;13.90;;;;;;;13.66;67.72;101383.72;4997850;28;20046;-66
2023/05/20 07:05:10;;;;;;;22.83;12.90;;;;;;;13.86;67.40;101372.09;5017500;28;20449;-65
2023/05/20 07:07:38;;;;;;;24.08;12.18;;;;;;;13.95;65.98;101377.66;5030634;28;20046;-67
2023/05/20 07:10:06;;;;;;;23.75;13.02;;;;;;;13.39;68.03;101381.94;4996813;28;20045;-66
2023/05/20 07:12:34;;;;;;;23.48;12.93;;;;;;;13.39;68.66;101376.41;5021945;28;20049;-66
2023/05/20 07:15:03;;;;;;;27.97;12.97;;;;;;;13.75;67.76;101378.25;4985112;28;20050;-65
2023/05/20 07:17:31;;;;;;;21.58;12.00;;;;;;;13.97;66.24;101372.63;4994172;28;20139;-66
2023/05/20 07:19:59;;;;;;;25.30;13.05;;;;;;;14.07;66.12;101369.59;5010228;28;20046;-66
2023/05/20 07:22:26;;;;;;;23.92;11.63;;;;;;;14.52;64.91;101371.81;4997526;28;20405;-66
2023/05/20 07:25:08;;;;;;;24.10;12.25;;;;;;;14.63;62.99;101367.63;5013630;28;20049;-65
2023/05/20 07:27:36;;;;;;;21.35;12.30;;;;;;;14.35;64.62;101365.44;5029514;28;20050;-67
2023/05/20 07:30:04;;;;;;;22.67;12.18;;;;;;;14.46;64.83;101364.81;5002440;28;20053;-66
2023/05/20 07:32:33;;;;;;;23.73;12.20;;;;;;;14.01;65.66;101357.84;5030456;28;20056;-65
2023/05/20 07:35:00;;;;;;;24.92;12.70;;;;;;;14.05;65.77;101364.34;5012951;28;20053;-66
2023/05/20 07:37:27;;;;;;;23.40;12.25;;;;;;;13.99;66.50;101365.63;4997219;28;20041;-65
2023/05/20 07:39:55;;;;;;;24.85;12.25;;;;;;;14.32;65.48;101364.13;5015305;28;20061;-66
2023/05/20 07:42:22;;;;;;;22.95;12.48;;;;;;;14.29;64.59;101362.03;4997320;28;20049;-65
2023/05/20 07:44:54;;;;;;;23.67;12.00;;;;;;;14.21;65.18;101359.19;5016551;28;20064;-66
2023/05/20 07:47:22;;;;;;;22.65;12.25;;;;;;;14.11;65.24;101362.25;5013726;28;20496;-66
2023/05/20 07:49:49;;;;;;;22.95;11.65;;;;;;;14.50;64.85;101356.69;5014009;28;20046;-65
2023/05/20 07:52:16;;;;;;;24.60;12.23;;;;;;;14.44;64.19;101346.88;4977285;28;20497;-67
2023/05/20 07:54:44;;;;;;;22.67;12.48;;;;;;;14.12;65.33;101350.03;5005114;28;20057;-66
2023/05/20 07:57:12;;;;;;;21.08;11.70;;;;;;;14.43;64.15;101342.47;5013128;28;20045;-66
2023/05/20 07:59:40;;;;;;;22.20;11.43;;;;;;;14.95;62.23;101346.06;4996694;28;20065;-66
2023/05/20 08:02:07;;;;;;;21.63;11.48;;;;;;;14.78;62.83;101344.16;5014719;28;20050;-66
2023/05/20 08:04:35;;;;;;;20.73;11.90;;;;;;;14.56;63.76;101347.88;5012211;28;20828;-67
2023/05/20 08:07:03;;;;;;;21.10;11.68;;;;;;;15.01;62.30;101342.00;5012791;28;20084;-65
2023/05/20 08:09:40;;;;;;;19.33;11.57;;;;;;;15.32;61.07;101335.09;4995629;28;20054;-66
2023/05/20 08:12:07;;;;;;;24.92;11.98;;;;;;;15.02;62.25;101344.44;5029758;28;20052;-66
2023/05/20 08:14:35;;;;;;;22.92;11.65;;;;;;;15.06;62.00;101339.88;5013895;28;20042;-66
2023/05/20 08:17:02;;;;;;;22.40;11.10;;;;;;;15.62;60.66;101336.81;4996826;28;20576;-65
2023/05/20 08:19:30;;;;;;;22.77;11.48;;;;;;;15.82;58.84;101328.91;4992207;28;20057;-66
2023/05/20 08:21:57;;;;;;;22.27;10.35;;;;;;;15.57;59.69;101330.63;5010122;28;20773;-66
2023/05/20 08:24:25;;;;;;;29.83;11.07;;;;;;;15.69;59.11;101325.22;5029624;28;20417;-65
2023/05/20 08:26:53;;;;;;;21.00;10.82;;;;;;;15.63;59.23;101330.16;4996309;28;20052;-67
2023/05/20 08:29:23;;;;;;;;;;;;;;;16.10;58.15;101321.75;5012780;28;20061;-66
2023/05/20 08:31:51;;;;;;;22.27;10.68;;;;;;;15.87;58.82;101318.44;5012024;28;19921;-67
2023/05/20 08:34:19;;;;;;;16.73;10.20;;;;;;;15.85;58.39;101329.06;4994704;28;20358;-66
2023/05/20 08:36:47;;;;;;;18.17;9.43;;;;;;;15.78;58.70;101320.44;5012603;28;20460;-65
2023/05/20 08:39:14;;;;;;;17.55;10.13;;;;;;;15.90;57.57;101326.09;4996948;28;20061;-66
2023/05/20 08:41:42;;;;;;;21.85;7.72;;;;;;;15.94;57.45;101315.13;5028759;28;20074;-66
2023/05/20 08:44:10;;;;;;;16.83;9.32;;;;;;;15.59;57.97;101317.25;5012360;28;20053;-66
2023/05/20 08:46:39;;;;;;;17.88;8.75;;;;;;;15.93;57.79;101310.72;4996468;28;20069;-66
2023/05/20 08:49:07;;;;;;;16.67;8.55;;;;;;;15.89;57.31;101305.03;4995571;28;20397;-65
2023/05/20 08:51:35;;;;;;;15.02;8.93;;;;;;;15.93;57.08;101300.44;5013858;28;20050;-65
2023/05/20 08:54:02;;;;;;;22.15;9.60;;;;;;;16.13;56.80;101293.25;4992233;28;20062;-65
2023/05/20 08:56:31;;;;;;;16.42;9.63;;;;;;;16.16;56.45;101298.97;4975605;28;20050;-66
2023/05/20 08:58:58;;;;;;;14.05;8.55;;;;;;;16.08;57.04;101291.50;4996396;28;20045;-65
2023/05/20 09:01:26;;;;;;;16.50;8.35;;;;;;;16.33;55.63;101301.66;5028507;28;20065;-64
2023/05/20 09:03:53;;;;;;;17.98;8.38;;;;;;;16.26;56.29;101303.34;4995529;28;20068;-65
2023/05/20 09:06:21;;;;;;;13.65;7.70;;;;;;;16.46;55.35;101297.81;5013348;28;20057;-65
2023/05/20 09:08:49;;;;;;;15.55;7.68;;;;;;;16.62;54.86;101301.63;5013277;28;20050;-65
2023/05/20 09:11:17;;;;;;;15.70;7.72;;;;;;;16.89;54.67;101297.47;5012707;28;20681;-66
2023/05/20 09:13:44;;;;;;;17.42;8.32;;;;;;;16.62;54.92;101292.47;4995988;28;20046;-65
2023/05/20 09:16:12;;;;;;;15.63;7.60;;;;;;;16.62;54.79;101287.72;5012831;28;20061;-64
2023/05/20 09:18:40;;;;;;;15.85;6.80;;;;;;;16.71;54.66;101287.63;5012487;28;20054;-65
2023/05/20 09:21:09;;;;;;;14.30;7.15;;;;;;;16.75;54.26;101289.38;4996341;28;20052;-65
2023/05/20 09:23:37;;;;;;;17.67;7.70;;;;;;;16.79;54.29;101295.09;5013446;28;20061;-63
2023/05/20 09:26:04;;;;;;;14.88;6.55;;;;;;;17.01;54.18;101278.03;5013433;28;20054;-65
2023/05/20 09:28:32;;;;;;;12.93;7.15;;;;;;;16.88;53.69;101276.34;5027520;28;20061;-65
2023/05/20 09:31:00;;;;;;;13.05;6.78;;;;;;;16.84;53.81;101279.00;5009799;28;20049;-66
2023/05/20 09:33:29;;;;;;;17.23;6.43;;;;;;;17.14;53.12;101267.75;5001038;28;20065;-64
2023/05/20 09:36:03;;;;;;;12.75;5.97;;;;;;;17.14;52.00;101273.31;5013274;28;20058;-64
2023/05/20 09:38:36;;;;;;;12.55;6.18;;;;;;;17.14;52.06;101268.53;5004690;28;20061;-65
2023/05/20 09:41:11;;;;;;;12.65;5.43;;;;;;;17.37;51.65;101264.19;5006764;28;20063;-64
2023/05/20 09:43:39;;;;;;;14.18;5.10;;;;;;;17.52;51.18;101271.09;5018157;28;20498;-65
2023/05/20 09:46:07;;;;;;;11.45;5.07;;;;;;;17.48;50.66;101254.28;5018267;28;20080;-65
2023/05/20 09:48:38;;;;;;;14.07;5.03;;;;;;;17.58;50.65;101255.78;5012552;28;20497;-64
2023/05/20 09:51:06;;;;;;;14.35;5.40;;;;;;;17.60;50.15;101247.88;5013507;28;20065;-64
2023/05/20 09:53:34;;;;;;;11.63;4.82;;;;;;;17.67;50.02;101243.38;4994525;28;20046;-64
2023/05/20 09:56:02;;;;;;;15.23;5.13;;;;;;;17.88;49.72;101258.00;5028017;28;20062;-65
2023/05/20 09:58:32;;;;;;;16.45;4.88;;;;;;;17.97;49.44;101252.28;5012708;28;20057;-64
2023/05/20 10:01:00;;;;;;;12.77;5.15;;;;;;;17.55;50.41;101245.34;5017789;28;20162;-64
2023/05/20 10:03:28;;;;;;;9.20;5.28;;;;;;;17.59;50.39;101241.50;5004945;28;20073;-65
2023/05/20 10:06:19;;;;;;;9.13;4.47;;;;;;;17.78;49.90;101238.16;5010356;28;20072;-65
2023/05/20 10:09:11;;;;;;;9.40;4.22;;;;;;;17.76;49.16;101241.28;5021043;28;20077;-65
2023/05/20 10:12:03;;;;;;;10.30;4.50;;;;;;;17.76;49.76;101224.56;5009920;28;20054;-64
2023/05/20 10:14:56;;;;;;;11.40;5.13;;;;;;;17.76;50.08;101223.75;5003916;28;20054;-64
2023/05/20 10:17:42;;;;;;;11.43;4.50;;;;;;;17.94;50.04;101223.13;4997855;28;20052;-64
2023/05/20 10:20:12;;;;;;;10.80;4.40;;;;;;;17.89;49.52;101231.75;5016538;28;20355;-65
2023/05/20 10:22:40;;;;;;;8.80;4.57;;;;;;;18.13;48.84;101216.16;4983052;28;20041;-62
2023/05/20 10:25:11;;;;;;;11.50;4.32;;;;;;;18.21;48.03;101217.97;5017041;28;20038;-64
2023/05/20 10:27:46;;;;;;;9.27;3.90;;;;;;;18.31;47.59;101209.09;5020133;28;20093;-65
2023/05/20 10:30:18;;;;;;;8.63;4.10;;;;;;;18.47;47.43;101213.63;5010563;28;20422;-65
2023/05/20 10:32:59;;;;;;;8.15;4.10;;;;;;;18.24;47.65;101212.50;5020982;28;20118;-64
2023/05/20 10:35:27;;;;;;;14.55;4.32;;;;;;;18.46;47.46;101203.63;5019554;28;20391;-63
2023/05/20 10:38:07;;;;;;;11.05;4.22;;;;;;;18.54;47.58;101213.84;5017785;28;20045;-65
2023/05/20 10:40:34;;;;;;;8.18;3.70;;;;;;;18.45;46.18;101202.00;5020106;28;20053;-64
2023/05/20 10:43:10;;;;;;;10.43;4.15;;;;;;;18.44;46.26;101211.56;4998164;28;20061;-64
2023/05/20 10:45:51;;;;;;;12.57;3.80;;;;;;;18.26;45.88;101217.72;5023978;28;20163;-64
2023/05/20 10:48:23;;;;;;;8.43;3.63;;;;;;;18.48;46.33;101190.13;5015602;28;20053;-63
2023/05/20 10:51:04;;;;;;;10.73;3.60;;;;;;;18.69;45.37;101201.09;5026087;28;20046;-64
2023/05/20 10:53:39;;;;;;;11.77;3.90;;;;;;;18.58;45.53;101189.66;4994259;28;20045;-65
2023/05/20 10:56:17;;;;;;;8.48;4.07;;;;;;;18.77;45.63;101206.53;5010104;28;20044;-65
2023/05/20 10:58:45;;;;;;;9.43;4.38;;;;;;;18.44;46.12;101194.81;5012257;28;20054;-63
2023/05/20 11:01:13;;;;;;;11.98;3.75;;;;;;;18.47;45.94;101187.69;5012495;28;20270;-64
2023/05/20 11:03:42;;;;;;;9.05;4.10;;;;;;;18.47;45.86;101177.38;5011333;28;20045;-65
2023/05/20 11:06:14;;;;;;;15.05;3.88;;;;;;;18.88;45.49;101176.91;5005976;28;20692;-65
2023/05/20 11:08:45;;;;;;;11.95;4.35;;;;;;;19.00;44.23;101173.25;5019991;28;20066;-65
2023/05/20 11:11:14;;;;;;;9.65;3.95;;;;;;;18.82;44.44;101183.13;5000729;28;20046;-64
2023/05/20 11:13:41;;;;;;;7.00;3.80;;;;;;;18.88;44.86;101178.91;5010060;28;20042;-64
2023/05/20 11:16:08;;;;;;;7.78;3.95;;;;;;;19.07;44.40;101170.66;5022082;28;20095;-64
2023/05/20 11:18:36;;;;;;;10.18;3.40;;;;;;;19.20;45.00;101174.13;5027477;28;20048;-63
2023/05/20 11:21:03;;;;;;;7.45;3.17;;;;;;;19.18;43.41;101168.91;5003419;28;20045;-64
2023/05/20 11:23:31;;;;;;;6.63;3.00;;;;;;;19.11;42.50;101174.31;5017555;28;20552;-64